Jamestown, Texas
Current Conditions -  °F | °C
As of 2:55 AM on Friday 24 Oct 2014 (Local Time) from KJAS Reporting Station
Clear Clear  
Wind Chill:   Ceiling: Unl
Heat Index:   Visibility: 10mi
Dew Point:   Wind: 0mph
Humidity: 98%   Direction: NA
Pressure: 30.15"   Gusts: NA
Location:  31.0751°N, 93.8073°W
Report Text: KJAS 240755Z AUTO 00000KT 10SM CLR 09/09 A3015 RMK AO2 T00880085
Loading
Personal Weather Stations






























Interactive Weather Map
Tropical Storm Tracking
New forecast layout! Learn more

10-Day Weather Forecast

Advertisements
Track Severe Weather on mobile